Time;durP1;ratioP1;P1;durP2;ratioP2;P2;SDS_P1;SDS_P2;PMS_P1;PMS_P2;Temp;Humidity;BMP_temperature;BMP_pressure;BME280_temperature;BME280_humidity;BME280_pressure;Samples;Min_cycle;Max_cycle;Signal;HPM_P1;HPM_P2
2021/09/24 00:01:15;;;;;;;7.55;1.67;;;;;;;;;;5029570;28;20484;-61
2021/09/24 00:03:41;;;;;;;4.95;1.10;;;;;;;;;;5029562;28;20021;-62
2021/09/24 00:06:07;;;;;;;15.05;1.38;;;;;;;;;;5029654;28;20377;-62
2021/09/24 00:08:33;;;;;;;5.95;1.10;;;;;;;;;;5029426;28;20038;-61
2021/09/24 00:10:59;;;;;;;4.78;1.10;;;;;;;;;;5029373;28;20053;-61
2021/09/24 00:13:26;;;;;;;4.25;1.00;;;;;;;;;;5029366;28;20472;-61
2021/09/24 00:15:52;;;;;;;3.20;1.20;;;;;;;;;;5029411;28;20396;-62
2021/09/24 00:18:18;;;;;;;6.10;1.20;;;;;;;;;;5029210;28;20098;-61
2021/09/24 00:20:45;;;;;;;5.75;1.13;;;;;;;;;;5029462;28;20022;-61
2021/09/24 00:23:11;;;;;;;5.65;1.27;;;;;;;;;;5029227;28;20496;-61
2021/09/24 00:25:37;;;;;;;5.47;1.05;;;;;;;;;;5029711;28;20025;-62
2021/09/24 00:28:05;;;;;;;9.15;1.40;;;;;;;;;;5029322;28;20038;-61
2021/09/24 00:30:31;;;;;;;7.13;1.48;;;;;;;;;;5029464;28;20026;-62
2021/09/24 00:32:57;;;;;;;6.05;1.10;;;;;;;;;;5029082;28;20476;-61
2021/09/24 00:35:23;;;;;;;3.65;1.23;;;;;;;;;;5029470;28;20029;-61
2021/09/24 00:37:49;;;;;;;4.20;1.02;;;;;;;;;;5029174;28;20154;-62
2021/09/24 00:40:15;;;;;;;7.65;1.30;;;;;;;;;;5097384;28;20039;-61
2021/09/24 00:42:41;;;;;;;5.25;1.23;;;;;;;;;;5097254;28;20025;-62
2021/09/24 00:45:08;;;;;;;9.68;1.20;;;;;;;;;;5029177;28;20030;-64
2021/09/24 00:47:34;;;;;;;7.10;1.30;;;;;;;;;;5028936;28;20034;-62
2021/09/24 00:50:00;;;;;;;8.45;1.40;;;;;;;;;;5029105;28;20047;-61
2021/09/24 00:52:27;;;;;;;2.92;1.20;;;;;;;;;;5029020;28;20034;-61
2021/09/24 00:54:53;;;;;;;7.80;1.27;;;;;;;;;;5029132;28;20104;-61
2021/09/24 00:57:20;;;;;;;5.80;1.52;;;;;;;;;;5029163;28;20155;-63
2021/09/24 00:59:50;;;;;;;5.38;1.23;;;;;;;;;;5029161;28;20028;-63
2021/09/24 01:02:17;;;;;;;12.23;1.05;;;;;;;;;;5028859;28;20070;-63
2021/09/24 01:04:43;;;;;;;5.57;1.30;;;;;;;;;;5031133;28;20094;-61
2021/09/24 01:07:11;;;;;;;4.35;1.08;;;;;;;;;;5031371;28;20076;-61
2021/09/24 01:09:37;;;;;;;18.50;1.48;;;;;;;;;;5032633;28;20048;-60
2021/09/24 01:12:03;;;;;;;4.72;1.30;;;;;;;;;;5032112;28;20026;-61
2021/09/24 01:14:30;;;;;;;4.30;1.35;;;;;;;;;;5032357;28;20034;-61
2021/09/24 01:16:57;;;;;;;6.70;1.10;;;;;;;;;;5032338;28;20071;-61
2021/09/24 01:19:23;;;;;;;4.63;0.90;;;;;;;;;;5031592;28;20030;-61
2021/09/24 01:21:49;;;;;;;6.55;1.35;;;;;;;;;;5031799;28;20132;-61
2021/09/24 01:24:15;;;;;;;2.10;1.10;;;;;;;;;;5031848;28;20100;-61
2021/09/24 01:26:48;;;;;;;4.23;1.07;;;;;;;;;;5031839;28;20447;-60
2021/09/24 01:29:14;;;;;;;6.13;1.13;;;;;;;;;;5031639;28;20021;-62
2021/09/24 01:31:40;;;;;;;4.75;1.20;;;;;;;;;;5031729;28;20029;-61
2021/09/24 01:34:06;;;;;;;6.07;1.20;;;;;;;;;;5031591;28;20028;-61
2021/09/24 01:36:32;;;;;;;4.10;0.80;;;;;;;;;;5032013;28;20021;-61
2021/09/24 01:39:04;;;;;;;3.38;1.20;;;;;;;;;;5031817;28;20029;-61
2021/09/24 01:41:30;;;;;;;9.63;1.08;;;;;;;;;;5110564;27;20027;-61
2021/09/24 01:43:56;;;;;;;5.97;1.10;;;;;;;;;;5135612;27;20030;-61
2021/09/24 01:46:22;;;;;;;4.75;1.10;;;;;;;;;;5136123;27;20023;-61
2021/09/24 01:48:48;;;;;;;3.45;1.00;;;;;;;;;;5135658;27;20042;-62
2021/09/24 01:51:14;;;;;;;11.15;1.40;;;;;;;;;;5091849;27;20097;-62
2021/09/24 01:53:40;;;;;;;4.70;1.20;;;;;;;;;;5031224;28;20030;-61
2021/09/24 01:56:06;;;;;;;3.17;1.40;;;;;;;;;;5031842;28;20030;-62
2021/09/24 01:58:32;;;;;;;6.10;1.33;;;;;;;;;;5031609;28;20032;-63
2021/09/24 02:00:58;;;;;;;4.65;1.00;;;;;;;;;;5031302;28;20017;-62
2021/09/24 02:03:24;;;;;;;5.00;1.20;;;;;;;;;;5031355;28;20080;-62
2021/09/24 02:05:50;;;;;;;3.13;0.90;;;;;;;;;;5031412;28;20432;-61
2021/09/24 02:08:16;;;;;;;6.50;1.10;;;;;;;;;;5031112;28;20030;-62
2021/09/24 02:10:42;;;;;;;3.95;1.13;;;;;;;;;;5031337;28;20025;-61
2021/09/24 02:13:08;;;;;;;5.15;1.20;;;;;;;;;;5031326;28;20041;-61
2021/09/24 02:15:34;;;;;;;4.75;1.00;;;;;;;;;;5030636;28;20018;-60
2021/09/24 02:18:00;;;;;;;2.75;1.00;;;;;;;;;;5031125;28;20026;-60
2021/09/24 02:20:26;;;;;;;4.63;1.27;;;;;;;;;;5030980;28;20036;-63
2021/09/24 02:22:52;;;;;;;4.63;1.13;;;;;;;;;;5030952;28;20049;-60
2021/09/24 02:25:18;;;;;;;10.73;1.02;;;;;;;;;;5030910;28;20354;-61
2021/09/24 02:27:44;;;;;;;5.45;1.35;;;;;;;;;;5031023;28;20038;-61
2021/09/24 02:30:12;;;;;;;6.20;1.27;;;;;;;;;;5031361;28;20148;-60
2021/09/24 02:32:38;;;;;;;8.20;1.20;;;;;;;;;;5031004;28;20025;-61
2021/09/24 02:35:07;;;;;;;3.53;1.23;;;;;;;;;;5098918;28;20018;-61
2021/09/24 02:37:33;;;;;;;4.88;1.45;;;;;;;;;;5030808;28;20049;-61
2021/09/24 02:39:59;;;;;;;5.32;1.15;;;;;;;;;;5044501;27;20064;-61
2021/09/24 02:42:25;;;;;;;3.72;1.10;;;;;;;;;;5135046;27;20098;-61
2021/09/24 02:44:51;;;;;;;4.45;1.38;;;;;;;;;;5116010;27;20030;-62
2021/09/24 02:47:17;;;;;;;7.18;1.10;;;;;;;;;;5134538;27;20027;-61
2021/09/24 02:49:46;;;;;;;2.03;0.90;;;;;;;;;;5134549;27;20038;-61
2021/09/24 02:52:12;;;;;;;2.60;1.10;;;;;;;;;;5049345;27;20024;-61
2021/09/24 02:54:38;;;;;;;7.32;1.35;;;;;;;;;;5030627;28;20026;-61
2021/09/24 02:57:04;;;;;;;2.75;1.15;;;;;;;;;;5030642;28;20022;-61
2021/09/24 02:59:30;;;;;;;8.38;1.30;;;;;;;;;;5030425;28;20049;-61
2021/09/24 03:01:58;;;;;;;6.53;1.15;;;;;;;;;;5030892;28;20104;-60
2021/09/24 03:04:24;;;;;;;3.33;1.20;;;;;;;;;;5030493;28;20022;-61
2021/09/24 03:06:50;;;;;;;5.95;1.10;;;;;;;;;;5030213;28;20160;-61
2021/09/24 03:09:16;;;;;;;5.93;1.10;;;;;;;;;;5030275;28;20069;-61
2021/09/24 03:11:42;;;;;;;5.10;1.27;;;;;;;;;;5030225;28;20567;-61
2021/09/24 03:14:08;;;;;;;3.45;1.25;;;;;;;;;;5030266;28;20457;-61
2021/09/24 03:16:37;;;;;;;4.25;1.20;;;;;;;;;;5030255;28;20030;-61
2021/09/24 03:19:03;;;;;;;5.63;1.10;;;;;;;;;;5030176;28;20040;-61
2021/09/24 03:21:29;;;;;;;3.88;1.10;;;;;;;;;;5029819;28;20388;-61
2021/09/24 03:23:55;;;;;;;5.25;1.10;;;;;;;;;;5030206;28;20078;-61
2021/09/24 03:26:21;;;;;;;3.38;1.10;;;;;;;;;;5029973;28;20033;-61
2021/09/24 03:28:47;;;;;;;4.65;1.27;;;;;;;;;;5029166;28;20052;-61
2021/09/24 03:31:14;;;;;;;3.58;1.15;;;;;;;;;;5029843;28;20209;-60
2021/09/24 03:33:40;;;;;;;4.15;1.20;;;;;;;;;;5030156;28;20061;-61
2021/09/24 03:36:06;;;;;;;6.13;1.30;;;;;;;;;;5029752;28;20472;-60
2021/09/24 03:38:32;;;;;;;3.65;1.30;;;;;;;;;;5029864;28;20033;-60
2021/09/24 03:40:58;;;;;;;4.00;1.35;;;;;;;;;;5085035;27;20026;-60
2021/09/24 03:43:24;;;;;;;4.10;1.23;;;;;;;;;;5133483;27;20379;-61
2021/09/24 03:45:50;;;;;;;3.22;1.00;;;;;;;;;;5133757;27;20477;-62
2021/09/24 03:48:16;;;;;;;3.97;1.23;;;;;;;;;;5133661;27;20076;-60
2021/09/24 03:50:43;;;;;;;1.60;0.98;;;;;;;;;;5112796;27;20025;-60
2021/09/24 03:53:09;;;;;;;4.43;1.00;;;;;;;;;;5029772;28;20053;-61
2021/09/24 03:55:35;;;;;;;4.35;1.15;;;;;;;;;;5029847;28;20029;-62
2021/09/24 03:58:01;;;;;;;4.03;1.00;;;;;;;;;;5029815;28;20086;-61
2021/09/24 04:00:27;;;;;;;7.22;0.90;;;;;;;;;;5029665;28;20029;-62
2021/09/24 04:02:53;;;;;;;3.08;1.20;;;;;;;;;;5029885;28;20049;-61
2021/09/24 04:05:19;;;;;;;8.48;1.30;;;;;;;;;;5028370;28;20346;-61
2021/09/24 04:07:45;;;;;;;5.75;1.00;;;;;;;;;;5029590;28;20469;-61
2021/09/24 04:10:11;;;;;;;8.48;1.33;;;;;;;;;;5029735;28;20048;-61
2021/09/24 04:12:37;;;;;;;8.57;1.25;;;;;;;;;;5097763;28;20433;-60
2021/09/24 04:15:04;;;;;;;4.25;1.27;;;;;;;;;;5029634;28;20022;-61
2021/09/24 04:17:30;;;;;;;8.05;1.15;;;;;;;;;;5029423;28;20078;-62
2021/09/24 04:19:56;;;;;;;3.65;0.90;;;;;;;;;;5029477;28;20100;-62
2021/09/24 04:22:22;;;;;;;10.80;1.30;;;;;;;;;;5029190;28;20053;-61
2021/09/24 04:24:48;;;;;;;8.70;1.40;;;;;;;;;;5029492;28;20033;-61
2021/09/24 04:27:14;;;;;;;10.15;1.30;;;;;;;;;;5029185;28;20373;-63
2021/09/24 04:29:40;;;;;;;4.68;1.10;;;;;;;;;;5029407;28;20063;-61
2021/09/24 04:32:06;;;;;;;7.47;1.10;;;;;;;;;;5029468;28;20112;-61
2021/09/24 04:34:32;;;;;;;10.68;1.25;;;;;;;;;;5029059;28;20536;-61
2021/09/24 04:36:58;;;;;;;11.55;1.05;;;;;;;;;;5029251;28;20135;-61
2021/09/24 04:39:24;;;;;;;5.32;1.20;;;;;;;;;;5031196;28;20029;-60
2021/09/24 04:41:51;;;;;;;7.32;1.17;;;;;;;;;;5125866;27;20019;-61
2021/09/24 04:44:17;;;;;;;7.53;0.80;;;;;;;;;;5137073;27;20027;-61
2021/09/24 04:46:46;;;;;;;13.40;1.20;;;;;;;;;;5103952;27;20037;-61
2021/09/24 04:49:12;;;;;;;3.60;0.88;;;;;;;;;;5052496;27;20499;-62
2021/09/24 04:51:38;;;;;;;4.10;1.10;;;;;;;;;;5034459;27;20023;-62
2021/09/24 04:54:04;;;;;;;7.93;1.63;;;;;;;;;;5023050;27;20427;-62
2021/09/24 04:56:30;;;;;;;4.97;1.40;;;;;;;;;;5019793;27;20030;-61
2021/09/24 04:58:56;;;;;;;8.43;1.27;;;;;;;;;;5019557;28;20030;-63
2021/09/24 05:01:22;;;;;;;17.02;1.65;;;;;;;;;;5039707;27;20021;-61
2021/09/24 05:03:48;;;;;;;8.18;1.40;;;;;;;;;;5012590;28;20029;-62
2021/09/24 05:06:14;;;;;;;15.00;1.33;;;;;;;;;;5021658;28;20025;-62
2021/09/24 05:08:40;;;;;;;8.70;1.92;;;;;;;;;;5024487;28;20041;-65
2021/09/24 05:11:06;;;;;;;11.43;1.60;;;;;;;;;;5045112;27;20021;-61
2021/09/24 05:13:32;;;;;;;5.78;1.40;;;;;;;;;;5029029;28;20083;-61
2021/09/24 05:15:58;;;;;;;23.40;1.83;;;;;;;;;;5032025;28;20026;-61
2021/09/24 05:18:24;;;;;;;8.38;1.50;;;;;;;;;;5031985;28;20108;-60
2021/09/24 05:20:50;;;;;;;6.90;1.58;;;;;;;;;;5031889;28;20064;-63
2021/09/24 05:23:16;;;;;;;7.22;1.70;;;;;;;;;;5031917;28;20121;-61
2021/09/24 05:25:42;;;;;;;12.63;1.90;;;;;;;;;;5031948;27;20093;-62
2021/09/24 05:28:08;;;;;;;18.02;1.80;;;;;;;;;;5020067;28;20718;-61
2021/09/24 05:30:34;;;;;;;8.50;1.25;;;;;;;;;;5025122;28;20077;-61
2021/09/24 05:33:00;;;;;;;10.10;1.70;;;;;;;;;;5019319;28;20078;-62
2021/09/24 05:35:27;;;;;;;13.45;2.03;;;;;;;;;;5036413;27;20025;-61
2021/09/24 05:37:53;;;;;;;24.40;2.30;;;;;;;;;;5102540;27;20030;-64
2021/09/24 05:40:19;;;;;;;41.28;2.35;;;;;;;;;;5079872;27;20509;-63
2021/09/24 05:42:45;;;;;;;17.90;1.88;;;;;;;;;;5032173;28;20147;-62
2021/09/24 05:45:13;;;;;;;12.70;1.80;;;;;;;;;;5100043;28;20062;-66
2021/09/24 05:47:39;;;;;;;28.67;2.42;;;;;;;;;;5031594;28;20025;-62
2021/09/24 05:50:11;;;;;;;17.38;2.25;;;;;;;;;;5092986;28;20400;-62
2021/09/24 05:52:37;;;;;;;10.07;2.22;;;;;;;;;;5135061;27;20031;-62
2021/09/24 05:55:03;;;;;;;10.57;2.00;;;;;;;;;;5135494;27;20031;-62
2021/09/24 05:57:29;;;;;;;14.82;2.15;;;;;;;;;;5113008;27;20110;-62
2021/09/24 05:59:55;;;;;;;16.08;1.70;;;;;;;;;;5031334;28;20053;-67
2021/09/24 06:02:21;;;;;;;9.88;1.80;;;;;;;;;;5038740;27;20346;-59
2021/09/24 06:04:47;;;;;;;25.05;2.50;;;;;;;;;;5042045;27;20022;-61
2021/09/24 06:07:13;;;;;;;15.52;1.65;;;;;;;;;;5027691;28;20422;-61
2021/09/24 06:09:39;;;;;;;11.15;1.73;;;;;;;;;;5106010;27;20030;-61
2021/09/24 06:12:05;;;;;;;8.65;1.77;;;;;;;;;;5073210;27;20033;-61
2021/09/24 06:14:31;;;;;;;10.75;1.52;;;;;;;;;;5088321;27;20023;-61
2021/09/24 06:16:57;;;;;;;8.98;1.88;;;;;;;;;;5080867;27;20021;-62
2021/09/24 06:19:23;;;;;;;7.25;1.67;;;;;;;;;;5077262;27;20037;-61
2021/09/24 06:21:49;;;;;;;15.93;2.10;;;;;;;;;;5076768;27;20540;-61
2021/09/24 06:24:16;;;;;;;16.70;2.00;;;;;;;;;;5091422;27;20049;-62
2021/09/24 06:26:42;;;;;;;10.93;1.92;;;;;;;;;;5091439;27;20029;-61
2021/09/24 06:29:08;;;;;;;9.32;1.85;;;;;;;;;;5076774;27;20065;-60
2021/09/24 06:31:34;;;;;;;8.43;1.63;;;;;;;;;;5091113;27;20048;-61
2021/09/24 06:34:00;;;;;;;16.23;2.33;;;;;;;;;;5082432;27;20076;-62
2021/09/24 06:36:26;;;;;;;10.93;1.90;;;;;;;;;;5086889;27;20062;-61
2021/09/24 06:38:52;;;;;;;12.85;2.45;;;;;;;;;;5076860;27;20025;-60
2021/09/24 06:41:18;;;;;;;8.02;1.92;;;;;;;;;;5106052;27;20029;-60
2021/09/24 06:43:44;;;;;;;7.32;1.98;;;;;;;;;;5076608;27;20018;-60
2021/09/24 06:46:10;;;;;;;9.68;2.50;;;;;;;;;;5077548;27;20661;-61
2021/09/24 06:48:36;;;;;;;7.32;1.90;;;;;;;;;;5016802;28;20116;-61
2021/09/24 06:51:02;;;;;;;6.07;2.00;;;;;;;;;;5091076;27;20021;-59
2021/09/24 06:53:28;;;;;;;11.23;2.17;;;;;;;;;;5054116;27;20105;-61
2021/09/24 06:55:57;;;;;;;7.47;1.95;;;;;;;;;;5033166;27;20022;-59
2021/09/24 06:58:23;;;;;;;8.23;2.53;;;;;;;;;;5030344;28;20032;-60
2021/09/24 07:00:51;;;;;;;9.77;2.35;;;;;;;;;;5094607;28;20026;-59
2021/09/24 07:03:17;;;;;;;7.25;2.20;;;;;;;;;;5010177;28;20026;-60
2021/09/24 07:05:43;;;;;;;5.18;1.92;;;;;;;;;;5010474;28;20419;-63
2021/09/24 07:08:09;;;;;;;13.35;2.60;;;;;;;;;;5125932;27;20094;-62
2021/09/24 07:10:35;;;;;;;8.88;2.20;;;;;;;;;;5134092;27;20453;-60
2021/09/24 07:13:01;;;;;;;6.07;2.10;;;;;;;;;;5133591;27;20051;-60
2021/09/24 07:15:27;;;;;;;10.75;2.53;;;;;;;;;;5133136;27;20023;-61
2021/09/24 07:17:53;;;;;;;10.98;2.13;;;;;;;;;;5065020;27;20041;-61
2021/09/24 07:20:19;;;;;;;10.18;2.10;;;;;;;;;;5029103;28;20025;-60
2021/09/24 07:22:45;;;;;;;6.50;2.45;;;;;;;;;;5029031;28;20056;-60
2021/09/24 07:25:11;;;;;;;6.93;2.83;;;;;;;;;;5029239;28;20022;-60
2021/09/24 07:27:37;;;;;;;9.05;2.95;;;;;;;;;;5029389;28;20033;-60
2021/09/24 07:30:03;;;;;;;12.80;3.03;;;;;;;;;;5030265;28;20049;-60
2021/09/24 07:32:29;;;;;;;10.75;3.30;;;;;;;;;;5030128;28;20034;-60
2021/09/24 07:34:56;;;;;;;13.25;3.13;;;;;;;;;;5028982;28;20029;-60
2021/09/24 07:37:22;;;;;;;11.65;3.08;;;;;;;;;;5030098;28;20029;-60
2021/09/24 07:39:47;;;;;;;11.57;3.05;;;;;;;;;;5035063;28;20017;-62
2021/09/24 07:42:13;;;;;;;10.05;3.03;;;;;;;;;;5133717;27;20496;-60
2021/09/24 07:44:39;;;;;;;8.25;3.75;;;;;;;;;;5133822;27;20100;-60
2021/09/24 07:47:07;;;;;;;5.50;3.05;;;;;;;;;;5133798;27;20365;-60
2021/09/24 07:49:33;;;;;;;7.80;3.13;;;;;;;;;;5133914;27;20023;-60
2021/09/24 07:51:59;;;;;;;13.02;3.33;;;;;;;;;;5125268;27;20051;-59
2021/09/24 07:54:26;;;;;;;13.30;3.38;;;;;;;;;;5010347;28;20075;-60
2021/09/24 07:56:52;;;;;;;10.30;3.28;;;;;;;;;;5009915;28;20022;-60
2021/09/24 07:59:18;;;;;;;10.30;3.25;;;;;;;;;;5077639;28;20037;-61
2021/09/24 08:01:44;;;;;;;9.40;3.88;;;;;;;;;;5010148;28;20025;-67
2021/09/24 08:04:10;;;;;;;6.57;3.33;;;;;;;;;;5010076;28;20384;-60
2021/09/24 08:06:36;;;;;;;8.52;3.40;;;;;;;;;;5010088;28;20075;-60
2021/09/24 08:09:03;;;;;;;8.30;3.15;;;;;;;;;;5023058;28;20034;-60
2021/09/24 08:11:29;;;;;;;7.13;3.08;;;;;;;;;;5029272;28;20415;-61
2021/09/24 08:13:55;;;;;;;8.13;3.45;;;;;;;;;;5030687;28;20422;-61
2021/09/24 08:16:21;;;;;;;8.45;3.60;;;;;;;;;;5033128;28;20037;-60
2021/09/24 08:18:47;;;;;;;8.02;3.03;;;;;;;;;;5033233;28;20025;-60
2021/09/24 08:21:13;;;;;;;8.95;3.08;;;;;;;;;;5033019;28;20065;-62
2021/09/24 08:23:41;;;;;;;8.88;2.88;;;;;;;;;;5033234;28;20056;-61
2021/09/24 08:26:08;;;;;;;12.50;3.13;;;;;;;;;;5031812;28;20034;-61
2021/09/24 08:28:34;;;;;;;4.18;2.53;;;;;;;;;;5032911;28;20037;-62
2021/09/24 08:31:00;;;;;;;8.40;2.90;;;;;;;;;;5032942;28;20022;-61
2021/09/24 08:33:27;;;;;;;8.40;3.47;;;;;;;;;;5032888;28;20044;-63
2021/09/24 08:35:53;;;;;;;8.35;2.85;;;;;;;;;;5033003;28;20026;-60
2021/09/24 08:38:19;;;;;;;8.73;3.10;;;;;;;;;;5101510;28;20097;-61
2021/09/24 08:40:45;;;;;;;4.97;2.65;;;;;;;;;;5079236;27;20019;-63
2021/09/24 08:43:12;;;;;;;8.55;2.88;;;;;;;;;;5137469;27;20042;-62
2021/09/24 08:45:38;;;;;;;8.10;2.75;;;;;;;;;;5137299;27;20386;-62
2021/09/24 08:48:05;;;;;;;7.15;3.00;;;;;;;;;;5137157;27;20038;-67
2021/09/24 08:50:33;;;;;;;6.20;2.58;;;;;;;;;;5137260;27;20026;-63
2021/09/24 08:52:59;;;;;;;10.48;3.05;;;;;;;;;;5137611;27;20031;-63
2021/09/24 08:55:26;;;;;;;7.25;2.40;;;;;;;;;;5137453;27;20035;-68
2021/09/24 08:57:52;;;;;;;10.35;2.83;;;;;;;;;;5047491;27;20034;-64
2021/09/24 09:00:18;;;;;;;7.90;2.80;;;;;;;;;;5012720;28;20097;-64
2021/09/24 09:02:52;;;;;;;4.70;2.85;;;;;;;;;;5012874;28;20030;-64
2021/09/24 09:05:18;;;;;;;6.88;2.65;;;;;;;;;;5012880;28;20054;-67
2021/09/24 09:07:45;;;;;;;6.75;2.72;;;;;;;;;;5012797;28;20065;-63
2021/09/24 09:10:11;;;;;;;8.88;2.70;;;;;;;;;;5012562;28;20030;-61
2021/09/24 09:12:38;;;;;;;4.85;2.50;;;;;;;;;;5012858;28;20018;-63
2021/09/24 09:15:14;;;;;;;6.63;2.60;;;;;;;;;;5012592;28;20065;-63
2021/09/24 09:17:41;;;;;;;5.38;2.35;;;;;;;;;;5012711;28;20014;-61
2021/09/24 09:20:19;;;;;;;7.75;2.80;;;;;;;;;;5031137;28;20090;-62
2021/09/24 09:22:50;;;;;;;5.80;2.40;;;;;;;;;;5032151;28;20041;-63
2021/09/24 09:25:24;;;;;;;8.30;2.58;;;;;;;;;;5032162;28;20113;-62
2021/09/24 09:27:50;;;;;;;7.18;2.55;;;;;;;;;;5032115;28;20038;-62
2021/09/24 09:30:17;;;;;;;6.00;2.75;;;;;;;;;;5032169;28;20053;-67
2021/09/24 09:32:44;;;;;;;6.25;2.70;;;;;;;;;;5100626;28;20029;-62
2021/09/24 09:35:11;;;;;;;5.47;2.50;;;;;;;;;;5021976;28;20022;-62
2021/09/24 09:37:38;;;;;;;3.97;2.35;;;;;;;;;;5012172;28;20053;-63
2021/09/24 09:40:07;;;;;;;11.35;2.90;;;;;;;;;;5099860;27;20019;-63
2021/09/24 09:42:34;;;;;;;6.50;2.70;;;;;;;;;;5136535;27;20027;-62
2021/09/24 09:45:00;;;;;;;8.95;2.70;;;;;;;;;;5136135;27;20027;-64
2021/09/24 09:47:33;;;;;;;5.85;3.05;;;;;;;;;;5135987;27;20481;-61
2021/09/24 09:50:09;;;;;;;6.80;2.95;;;;;;;;;;5136544;27;20035;-61
2021/09/24 09:52:54;;;;;;;9.02;3.00;;;;;;;;;;5117750;27;20470;-61
2021/09/24 09:55:20;;;;;;;9.10;3.17;;;;;;;;;;5135943;27;20024;-64
2021/09/24 09:57:53;;;;;;;8.38;3.03;;;;;;;;;;5135930;27;20035;-61
2021/09/24 10:00:19;;;;;;;7.60;2.95;;;;;;;;;;5136197;27;20493;-62
2021/09/24 10:02:49;;;;;;;8.30;3.17;;;;;;;;;;5135864;27;20077;-63
2021/09/24 10:05:33;;;;;;;5.55;2.50;;;;;;;;;;5135963;27;20482;-66
2021/09/24 10:08:01;;;;;;;8.75;2.65;;;;;;;;;;5133904;27;20024;-63
2021/09/24 10:10:28;;;;;;;7.88;2.78;;;;;;;;;;5011790;28;20025;-62
2021/09/24 10:13:04;;;;;;;10.52;3.20;;;;;;;;;;5012160;28;20021;-61
2021/09/24 10:15:30;;;;;;;8.07;2.97;;;;;;;;;;5011433;28;20496;-61
2021/09/24 10:17:56;;;;;;;7.93;2.70;;;;;;;;;;5011353;28;20036;-60
2021/09/24 10:20:22;;;;;;;11.63;3.58;;;;;;;;;;5011611;28;20057;-61
2021/09/24 10:22:48;;;;;;;8.15;2.88;;;;;;;;;;5011621;28;20050;-60
2021/09/24 10:25:21;;;;;;;6.38;2.47;;;;;;;;;;5011097;28;20033;-60
2021/09/24 10:27:47;;;;;;;8.05;2.83;;;;;;;;;;5011459;28;20414;-60
2021/09/24 10:30:17;;;;;;;6.03;2.67;;;;;;;;;;5011344;28;20763;-61
2021/09/24 10:32:54;;;;;;;6.53;2.50;;;;;;;;;;5079344;28;20041;-70
2021/09/24 10:35:20;;;;;;;7.93;3.10;;;;;;;;;;5011022;28;20022;-61
2021/09/24 10:37:47;;;;;;;7.65;2.40;;;;;;;;;;5024572;28;20072;-61
2021/09/24 10:40:23;;;;;;;5.32;2.55;;;;;;;;;;5116237;27;20055;-62
2021/09/24 10:42:56;;;;;;;7.68;2.90;;;;;;;;;;5135083;27;20593;-60
2021/09/24 10:45:22;;;;;;;;;;;;;;;;;;5135259;27;20023;-60
2021/09/24 10:47:47;;;;;;;10.45;2.97;;;;;;;;;;5116223;27;19963;-60
2021/09/24 10:50:37;;;;;;;6.07;2.85;;;;;;;;;;5134867;27;20023;-61
2021/09/24 10:53:09;;;;;;;7.65;2.40;;;;;;;;;;5134831;27;20068;-61
2021/09/24 10:55:39;;;;;;;4.15;2.30;;;;;;;;;;5127383;27;20030;-66
2021/09/24 10:58:06;;;;;;;6.97;2.92;;;;;;;;;;5011449;27;20030;-60
2021/09/24 11:00:33;;;;;;;5.07;2.58;;;;;;;;;;5079497;28;20072;-63
2021/09/24 11:03:14;;;;;;;9.85;3.17;;;;;;;;;;5018770;28;20472;-60
2021/09/24 11:06:03;;;;;;;9.85;2.90;;;;;;;;;;5054334;27;20425;-61
2021/09/24 11:08:29;;;;;;;9.95;3.05;;;;;;;;;;5064994;27;20148;-61
2021/09/24 11:11:04;;;;;;;9.18;3.50;;;;;;;;;;5029980;28;20017;-60
2021/09/24 11:13:31;;;;;;;6.97;2.80;;;;;;;;;;5030109;28;20033;-60
2021/09/24 11:16:02;;;;;;;8.23;3.00;;;;;;;;;;5129315;27;20517;-65
2021/09/24 11:18:47;;;;;;;5.25;2.85;;;;;;;;;;5134128;27;20035;-60
2021/09/24 11:21:14;;;;;;;9.60;2.65;;;;;;;;;;5083488;28;20038;-60
2021/09/24 11:23:41;;;;;;;6.50;2.50;;;;;;;;;;5010483;28;20049;-60
2021/09/24 11:26:09;;;;;;;11.57;3.00;;;;;;;;;;5010179;28;20029;-60
2021/09/24 11:28:35;;;;;;;10.82;2.67;;;;;;;;;;5077748;28;20062;-61
2021/09/24 11:31:01;;;;;;;10.15;2.63;;;;;;;;;;5010581;28;20092;-61
2021/09/24 11:33:53;;;;;;;10.75;2.40;;;;;;;;;;5010253;28;20030;-61
2021/09/24 11:36:38;;;;;;;6.68;2.38;;;;;;;;;;5011200;28;20495;-61
2021/09/24 11:39:05;;;;;;;6.15;2.25;;;;;;;;;;5029140;28;20480;-61
2021/09/24 11:41:31;;;;;;;6.28;2.25;;;;;;;;;;5030249;28;20038;-61
2021/09/24 11:43:57;;;;;;;7.35;2.13;;;;;;;;;;5030038;28;20026;-61
2021/09/24 11:46:26;;;;;;;9.68;2.55;;;;;;;;;;5029876;28;20058;-61
2021/09/24 11:48:52;;;;;;;10.52;2.00;;;;;;;;;;5028931;28;20038;-61
2021/09/24 11:51:18;;;;;;;5.00;1.50;;;;;;;;;;5076750;27;20019;-61
2021/09/24 11:53:45;;;;;;;6.95;1.95;;;;;;;;;;5133654;27;20038;-61
2021/09/24 11:56:11;;;;;;;7.97;2.10;;;;;;;;;;5115140;28;20042;-61
2021/09/24 11:58:37;;;;;;;4.07;2.00;;;;;;;;;;5133723;28;20027;-60
2021/09/24 12:01:03;;;;;;;4.03;1.80;;;;;;;;;;5133815;28;20019;-62
2021/09/24 12:03:30;;;;;;;4.22;1.60;;;;;;;;;;5115210;28;20482;-61
2021/09/24 12:06:08;;;;;;;6.25;1.75;;;;;;;;;;5133628;28;20023;-61
2021/09/24 12:08:43;;;;;;;5.95;1.70;;;;;;;;;;5133518;28;20449;-61
2021/09/24 12:11:25;;;;;;;6.18;1.48;;;;;;;;;;5055498;28;20033;-61
2021/09/24 12:13:52;;;;;;;5.22;1.55;;;;;;;;;;5029839;28;20508;-61
2021/09/24 12:16:33;;;;;;;6.72;1.40;;;;;;;;;;5029501;28;20022;-61
2021/09/24 12:19:03;;;;;;;8.85;1.50;;;;;;;;;;5029422;28;20026;-61
2021/09/24 12:21:39;;;;;;;2.67;1.23;;;;;;;;;;5029249;28;20033;-61
2021/09/24 12:24:08;;;;;;;4.20;1.45;;;;;;;;;;5029375;28;20038;-61
2021/09/24 12:26:36;;;;;;;3.90;1.40;;;;;;;;;;5029543;28;20070;-61
2021/09/24 12:29:04;;;;;;;4.57;1.50;;;;;;;;;;5029321;28;20049;-61
2021/09/24 12:31:34;;;;;;;4.47;1.40;;;;;;;;;;5029355;28;20026;-62
2021/09/24 12:34:00;;;;;;;7.63;1.30;;;;;;;;;;5029249;28;20025;-61
2021/09/24 12:36:26;;;;;;;2.53;1.20;;;;;;;;;;5029274;28;20104;-61
2021/09/24 12:38:53;;;;;;;3.55;1.02;;;;;;;;;;5029314;28;20033;-61
2021/09/24 12:41:19;;;;;;;4.90;1.13;;;;;;;;;;5098209;28;20019;-61
2021/09/24 12:43:46;;;;;;;5.25;1.20;;;;;;;;;;5133382;28;20035;-61
2021/09/24 12:46:12;;;;;;;9.93;1.48;;;;;;;;;;5133337;27;20034;-62
2021/09/24 12:48:40;;;;;;;2.45;0.88;;;;;;;;;;5133119;28;20478;-62
2021/09/24 12:51:06;;;;;;;6.90;1.30;;;;;;;;;;5133054;28;20065;-61
2021/09/24 12:53:33;;;;;;;6.35;1.02;;;;;;;;;;5133392;28;20038;-61
2021/09/24 12:56:00;;;;;;;7.93;1.23;;;;;;;;;;5114761;28;20371;-61
2021/09/24 12:58:33;;;;;;;6.63;1.02;;;;;;;;;;5133316;28;20028;-61
2021/09/24 13:01:01;;;;;;;7.55;1.27;;;;;;;;;;5136227;27;20026;-61
2021/09/24 13:03:31;;;;;;;2.28;1.25;;;;;;;;;;5137144;27;20065;-61
2021/09/24 13:06:01;;;;;;;1.48;0.88;;;;;;;;;;5137172;27;20023;-64
2021/09/24 13:08:27;;;;;;;3.72;1.20;;;;;;;;;;5042339;27;20105;-61
2021/09/24 13:10:54;;;;;;;5.00;1.10;;;;;;;;;;5032408;28;20522;-61
2021/09/24 13:13:21;;;;;;;8.30;1.40;;;;;;;;;;5032417;28;20025;-62
2021/09/24 13:15:47;;;;;;;4.18;1.40;;;;;;;;;;5032006;28;20021;-61
2021/09/24 13:18:13;;;;;;;5.28;1.40;;;;;;;;;;5032125;28;20032;-61
2021/09/24 13:20:39;;;;;;;3.70;1.17;;;;;;;;;;5032191;28;20029;-61
2021/09/24 13:23:05;;;;;;;6.63;1.20;;;;;;;;;;5031893;28;20098;-61
2021/09/24 13:25:31;;;;;;;2.30;1.02;;;;;;;;;;5031333;28;20042;-61
2021/09/24 13:27:57;;;;;;;6.47;1.70;;;;;;;;;;5032012;28;20067;-61
2021/09/24 13:30:23;;;;;;;5.55;1.23;;;;;;;;;;5032309;28;20033;-61
2021/09/24 13:32:49;;;;;;;7.10;1.55;;;;;;;;;;5032212;28;20029;-61
2021/09/24 13:35:15;;;;;;;6.70;1.70;;;;;;;;;;5031708;28;20022;-61
2021/09/24 13:37:43;;;;;;;5.10;1.45;;;;;;;;;;5031886;28;20234;-64
2021/09/24 13:40:09;;;;;;;5.13;1.38;;;;;;;;;;5051943;27;20517;-61
2021/09/24 13:42:37;;;;;;;3.95;1.20;;;;;;;;;;5080451;27;20030;-61
2021/09/24 13:45:04;;;;;;;4.22;1.52;;;;;;;;;;5012021;28;20022;-61
2021/09/24 13:47:30;;;;;;;2.97;1.35;;;;;;;;;;5011917;28;20154;-61
2021/09/24 13:49:56;;;;;;;4.50;1.30;;;;;;;;;;5011854;28;20108;-61
2021/09/24 13:52:22;;;;;;;3.83;1.48;;;;;;;;;;5079698;28;20156;-61
2021/09/24 13:54:48;;;;;;;7.70;1.67;;;;;;;;;;5011935;28;20057;-61
2021/09/24 13:57:14;;;;;;;7.32;1.67;;;;;;;;;;5011885;28;20029;-61
2021/09/24 13:59:40;;;;;;;4.82;1.27;;;;;;;;;;5011775;28;20030;-61
2021/09/24 14:02:07;;;;;;;8.65;2.15;;;;;;;;;;5011824;28;20048;-61
2021/09/24 14:04:32;;;;;;;8.10;1.80;;;;;;;;;;5079462;28;20380;-61
2021/09/24 14:06:58;;;;;;;3.47;1.58;;;;;;;;;;5011742;28;20469;-63
2021/09/24 14:09:24;;;;;;;5.57;1.80;;;;;;;;;;5011758;28;20038;-62
2021/09/24 14:11:51;;;;;;;4.63;1.60;;;;;;;;;;5010772;28;20029;-61
2021/09/24 14:14:17;;;;;;;5.72;2.22;;;;;;;;;;5011613;28;20061;-61
2021/09/24 14:16:43;;;;;;;7.18;1.65;;;;;;;;;;5079083;28;20038;-61
2021/09/24 14:19:09;;;;;;;5.68;2.22;;;;;;;;;;5011589;28;20038;-67
2021/09/24 14:21:35;;;;;;;3.42;1.50;;;;;;;;;;5079118;28;20116;-63
2021/09/24 14:24:02;;;;;;;6.72;1.38;;;;;;;;;;5011263;28;20065;-62
2021/09/24 14:26:28;;;;;;;7.28;1.83;;;;;;;;;;5011499;28;20018;-61
2021/09/24 14:28:54;;;;;;;8.90;1.90;;;;;;;;;;5011331;28;20442;-61
2021/09/24 14:31:20;;;;;;;8.80;1.80;;;;;;;;;;5011463;28;20038;-61
2021/09/24 14:33:46;;;;;;;3.17;1.45;;;;;;;;;;5011552;28;20034;-61
2021/09/24 14:36:12;;;;;;;3.83;1.40;;;;;;;;;;5011234;28;20193;-61
2021/09/24 14:38:38;;;;;;;7.78;1.83;;;;;;;;;;5011084;28;20411;-61
2021/09/24 14:41:04;;;;;;;5.45;1.35;;;;;;;;;;5116330;27;20027;-61